createdAt,value
2018-12-30T00:00:28.727Z,4.73
2018-12-30T00:02:56.167Z,5.00
2018-12-30T00:05:23.579Z,4.73
2018-12-30T00:07:51.024Z,5.17
2018-12-30T00:10:18.470Z,5.13
2018-12-30T00:12:45.865Z,4.80
2018-12-30T00:15:13.298Z,4.23
2018-12-30T00:17:40.768Z,4.53
2018-12-30T00:20:08.185Z,4.87
2018-12-30T00:22:35.607Z,5.00
2018-12-30T00:25:03.006Z,4.30
2018-12-30T00:27:30.436Z,5.57
2018-12-30T00:30:00.345Z,4.33
2018-12-30T00:32:27.763Z,4.20
2018-12-30T00:34:55.185Z,3.73
2018-12-30T00:37:22.593Z,4.13
2018-12-30T00:39:50.015Z,4.77
2018-12-30T00:42:17.423Z,4.30
2018-12-30T00:44:44.838Z,4.10
2018-12-30T00:47:12.228Z,4.23
2018-12-30T00:49:39.644Z,3.97
2018-12-30T00:52:07.046Z,4.50
2018-12-30T00:54:34.468Z,4.40
2018-12-30T00:57:01.863Z,4.43
2018-12-30T00:59:29.285Z,5.13
2018-12-30T01:01:56.689Z,4.73
2018-12-30T01:04:24.106Z,4.67
2018-12-30T01:06:51.517Z,5.50
2018-12-30T01:09:18.950Z,5.03
2018-12-30T01:11:46.362Z,4.60
2018-12-30T01:14:13.758Z,4.37
2018-12-30T01:16:41.186Z,4.80
2018-12-30T01:19:08.587Z,4.50
2018-12-30T01:21:36.058Z,4.43
2018-12-30T01:24:03.481Z,5.00
2018-12-30T01:26:30.925Z,4.73
2018-12-30T01:28:58.326Z,4.00
2018-12-30T01:31:25.760Z,4.93
2018-12-30T01:33:53.254Z,3.93
2018-12-30T01:36:20.671Z,4.23
2018-12-30T01:38:48.088Z,3.77
2018-12-30T01:41:15.499Z,4.47
2018-12-30T01:43:42.937Z,4.83
2018-12-30T01:46:10.339Z,3.70
2018-12-30T01:48:37.741Z,4.43
2018-12-30T01:51:05.181Z,4.50
2018-12-30T01:53:32.581Z,4.30
2018-12-30T01:56:00.001Z,4.43
2018-12-30T01:58:27.395Z,4.40
2018-12-30T02:00:54.818Z,5.13
2018-12-30T02:03:22.243Z,4.87
2018-12-30T02:05:49.639Z,4.30
2018-12-30T02:08:17.062Z,5.07
2018-12-30T02:10:44.461Z,5.30
2018-12-30T02:13:11.888Z,5.40
2018-12-30T02:15:39.284Z,4.37
2018-12-30T02:18:06.710Z,4.67
2018-12-30T02:20:34.135Z,4.90
2018-12-30T02:23:01.521Z,5.27
2018-12-30T02:25:28.951Z,4.90
2018-12-30T02:27:56.383Z,4.33
2018-12-30T02:30:24.108Z,5.20
2018-12-30T02:32:51.533Z,5.00
2018-12-30T02:35:19.077Z,3.90
2018-12-30T02:37:46.506Z,4.40
2018-12-30T02:40:13.911Z,4.63
2018-12-30T02:42:41.332Z,4.33
2018-12-30T02:45:08.752Z,4.47
2018-12-30T02:47:36.176Z,5.03
2018-12-30T02:50:03.576Z,4.53
2018-12-30T02:52:30.976Z,5.20
2018-12-30T02:54:58.427Z,4.80
2018-12-30T02:57:25.835Z,4.87
2018-12-30T02:59:53.261Z,4.90
2018-12-30T03:02:23.647Z,4.73
2018-12-30T03:04:51.039Z,5.27
2018-12-30T03:07:18.460Z,4.50
2018-12-30T03:09:49.143Z,4.47
2018-12-30T03:12:16.581Z,4.47
2018-12-30T03:14:44.020Z,4.30
2018-12-30T03:17:11.432Z,4.10
2018-12-30T03:19:38.830Z,4.50
2018-12-30T03:22:06.254Z,4.17
2018-12-30T03:24:33.655Z,4.67
2018-12-30T03:27:01.075Z,4.80
2018-12-30T03:29:28.505Z,4.87
2018-12-30T03:31:55.918Z,4.67
2018-12-30T03:34:23.375Z,4.53
2018-12-30T03:36:50.846Z,4.10
2018-12-30T03:39:18.210Z,4.93
2018-12-30T03:41:45.700Z,4.77
2018-12-30T03:44:13.046Z,4.90
2018-12-30T03:46:40.462Z,4.70
2018-12-30T03:49:07.865Z,4.80
2018-12-30T03:51:35.292Z,5.17
2018-12-30T03:54:07.577Z,4.97
2018-12-30T03:56:33.019Z,5.50
2018-12-30T03:59:00.429Z,4.43
2018-12-30T04:01:27.853Z,5.80
2018-12-30T04:03:55.723Z,5.40
2018-12-30T04:06:23.199Z,4.90
2018-12-30T04:08:50.613Z,4.97
2018-12-30T04:11:23.320Z,4.43
2018-12-30T04:13:50.730Z,5.07
2018-12-30T04:16:18.132Z,4.93
2018-12-30T04:18:45.620Z,5.20
2018-12-30T04:21:13.025Z,6.33
2018-12-30T04:23:40.463Z,5.37
2018-12-30T04:26:07.893Z,5.77
2018-12-30T04:28:35.289Z,6.37
2018-12-30T04:31:02.687Z,6.33
2018-12-30T04:33:30.111Z,5.50
2018-12-30T04:35:57.515Z,6.43
2018-12-30T04:38:24.943Z,6.27
2018-12-30T04:40:52.340Z,7.43
2018-12-30T04:43:19.805Z,6.90
2018-12-30T04:45:47.172Z,7.60
2018-12-30T04:48:14.599Z,6.83
2018-12-30T04:50:42.032Z,7.83
2018-12-30T04:53:09.455Z,7.30
2018-12-30T04:55:36.846Z,6.70
2018-12-30T04:58:04.245Z,7.83
2018-12-30T05:00:31.675Z,7.67
2018-12-30T05:02:59.063Z,7.77
2018-12-30T05:05:26.494Z,8.23
2018-12-30T05:07:53.890Z,8.10
2018-12-30T05:10:21.314Z,8.67
2018-12-30T05:12:48.710Z,8.90
2018-12-30T05:15:16.143Z,8.80
2018-12-30T05:17:43.550Z,8.60
2018-12-30T05:20:10.966Z,8.50
2018-12-30T05:22:41.333Z,8.67
2018-12-30T05:25:08.731Z,9.47
2018-12-30T05:27:36.153Z,9.07
2018-12-30T05:30:03.559Z,8.67
2018-12-30T05:32:30.996Z,9.00
2018-12-30T05:34:58.442Z,8.77
2018-12-30T05:37:25.867Z,9.63
2018-12-30T05:39:53.272Z,9.57
2018-12-30T05:42:20.681Z,10.70
2018-12-30T05:44:48.118Z,11.87
2018-12-30T05:47:15.562Z,12.07
2018-12-30T05:49:42.990Z,11.20
2018-12-30T05:52:10.446Z,13.07
2018-12-30T05:54:37.850Z,13.43
2018-12-30T05:57:05.280Z,14.30
2018-12-30T05:59:32.707Z,13.70
2018-12-30T06:02:00.113Z,14.73
2018-12-30T06:04:27.530Z,13.97
2018-12-30T06:06:54.944Z,14.50
2018-12-30T06:09:22.363Z,14.83
2018-12-30T06:11:49.782Z,15.33
2018-12-30T06:14:17.182Z,15.27
2018-12-30T06:16:44.659Z,15.80
2018-12-30T06:19:12.065Z,16.87
2018-12-30T06:21:39.505Z,16.83
2018-12-30T06:24:06.901Z,16.70
2018-12-30T06:26:34.334Z,16.13
2018-12-30T06:29:01.747Z,16.17
2018-12-30T06:31:29.161Z,15.10
2018-12-30T06:33:56.612Z,16.10
2018-12-30T06:36:24.016Z,15.93
2018-12-30T06:38:51.424Z,13.80
2018-12-30T06:41:18.866Z,16.70
2018-12-30T06:43:46.284Z,15.80
2018-12-30T06:46:13.680Z,16.27
2018-12-30T06:48:41.107Z,16.67
2018-12-30T06:51:08.507Z,16.70
2018-12-30T06:53:35.936Z,17.57
2018-12-30T06:56:03.346Z,17.17
2018-12-30T06:58:30.772Z,17.07
2018-12-30T07:00:58.226Z,16.67
2018-12-30T07:03:25.586Z,17.97
2018-12-30T07:05:53.033Z,18.73
2018-12-30T07:08:20.436Z,18.27
2018-12-30T07:10:47.865Z,18.20
2018-12-30T07:13:15.301Z,17.17
2018-12-30T07:15:42.713Z,18.03
2018-12-30T07:18:10.140Z,20.23
2018-12-30T07:20:37.541Z,19.43
2018-12-30T07:23:05.910Z,20.57
2018-12-30T07:25:32.366Z,19.60
2018-12-30T07:27:59.795Z,19.20
2018-12-30T07:30:27.208Z,19.27
2018-12-30T07:32:54.657Z,18.77
2018-12-30T07:35:22.064Z,16.33
2018-12-30T07:37:49.470Z,19.40
2018-12-30T07:40:16.905Z,19.10
2018-12-30T07:42:44.353Z,19.57
2018-12-30T07:45:11.782Z,18.87
2018-12-30T07:47:39.190Z,19.87
2018-12-30T07:50:06.585Z,19.67
2018-12-30T07:52:34.022Z,19.90
2018-12-30T07:55:01.473Z,21.67
2018-12-30T07:57:28.889Z,20.40
2018-12-30T07:59:56.302Z,20.30
2018-12-30T08:02:23.748Z,21.17
2018-12-30T08:04:51.156Z,21.17
2018-12-30T08:07:18.594Z,18.77
2018-12-30T08:09:46.046Z,20.23
2018-12-30T08:12:13.478Z,19.47
2018-12-30T08:14:40.891Z,21.70
2018-12-30T08:17:08.407Z,18.27
2018-12-30T08:19:35.813Z,19.63
2018-12-30T08:22:03.239Z,18.43
2018-12-30T08:24:30.675Z,19.80
2018-12-30T08:26:58.077Z,18.87
2018-12-30T08:29:25.497Z,20.70
2018-12-30T08:31:52.924Z,18.40
2018-12-30T08:34:20.362Z,17.40
2018-12-30T08:36:47.770Z,16.13
2018-12-30T08:39:15.193Z,14.27
2018-12-30T08:41:42.616Z,14.47
2018-12-30T08:44:10.067Z,15.63
2018-12-30T08:46:37.467Z,16.60
2018-12-30T08:49:04.901Z,15.57
2018-12-30T08:51:32.343Z,16.70
2018-12-30T08:53:59.745Z,16.43
2018-12-30T08:56:27.194Z,15.63
2018-12-30T08:58:54.588Z,15.17
2018-12-30T09:01:28.198Z,17.07
2018-12-30T09:03:49.413Z,15.07
2018-12-30T09:06:16.837Z,15.37
2018-12-30T09:08:44.242Z,16.00
2018-12-30T09:11:11.685Z,15.10
2018-12-30T09:13:39.103Z,16.33
2018-12-30T09:16:06.514Z,15.57
2018-12-30T09:18:33.949Z,15.20
2018-12-30T09:21:01.352Z,15.03
2018-12-30T09:23:28.774Z,15.40
2018-12-30T09:25:56.191Z,17.97
2018-12-30T09:28:23.611Z,18.13
2018-12-30T09:30:51.050Z,17.30
2018-12-30T09:33:18.486Z,16.27
2018-12-30T09:35:45.914Z,16.83
2018-12-30T09:38:13.320Z,15.43
2018-12-30T09:40:40.746Z,16.80
2018-12-30T09:43:08.175Z,18.10
2018-12-30T09:45:35.574Z,17.80
2018-12-30T09:48:02.996Z,16.70
2018-12-30T09:50:30.424Z,16.50
2018-12-30T09:52:57.840Z,16.13
2018-12-30T09:55:25.272Z,15.33
2018-12-30T09:57:52.675Z,16.57
2018-12-30T10:00:20.090Z,15.30
2018-12-30T10:02:47.518Z,17.13
2018-12-30T10:05:14.946Z,16.50
2018-12-30T10:07:42.434Z,17.13
2018-12-30T10:10:09.857Z,15.40
2018-12-30T10:12:37.293Z,16.10
2018-12-30T10:15:09.617Z,15.10
2018-12-30T10:17:32.190Z,14.97
2018-12-30T10:19:59.592Z,14.57
2018-12-30T10:22:27.023Z,14.23
2018-12-30T10:24:54.427Z,15.10
2018-12-30T10:27:21.868Z,14.50
2018-12-30T10:29:49.261Z,15.83
2018-12-30T10:32:16.670Z,15.43
2018-12-30T10:34:44.095Z,14.17
2018-12-30T10:37:11.494Z,14.67
2018-12-30T10:39:38.918Z,15.97
2018-12-30T10:42:06.347Z,15.70
2018-12-30T10:44:33.781Z,15.33
2018-12-30T10:47:03.813Z,16.17
2018-12-30T10:49:31.227Z,15.80
2018-12-30T10:51:58.798Z,16.27
2018-12-30T10:54:26.220Z,16.30
2018-12-30T10:56:53.652Z,15.30
2018-12-30T10:59:21.053Z,17.20
2018-12-30T11:01:48.491Z,16.03
2018-12-30T11:04:15.894Z,16.63
2018-12-30T11:06:43.342Z,16.43
2018-12-30T11:09:10.744Z,16.00
2018-12-30T11:11:38.162Z,16.77
2018-12-30T11:14:05.568Z,17.03
2018-12-30T11:16:33.021Z,16.77
2018-12-30T11:19:00.447Z,15.90
2018-12-30T11:21:27.865Z,16.10
2018-12-30T11:23:55.295Z,17.07
2018-12-30T11:26:22.712Z,16.37
2018-12-30T11:28:50.137Z,15.80
2018-12-30T11:31:17.570Z,16.70
2018-12-30T11:33:44.998Z,16.00
2018-12-30T11:36:12.409Z,16.83
2018-12-30T11:38:39.842Z,18.57
2018-12-30T11:41:07.246Z,16.13
2018-12-30T11:43:34.664Z,17.57
2018-12-30T11:46:02.103Z,17.63
2018-12-30T11:48:29.517Z,18.57
2018-12-30T11:50:56.956Z,19.03
2018-12-30T11:53:24.352Z,20.13
2018-12-30T11:55:51.825Z,18.07
2018-12-30T11:58:19.236Z,21.00
2018-12-30T12:00:46.653Z,19.47
2018-12-30T12:03:14.093Z,18.40
2018-12-30T12:05:41.524Z,20.03
2018-12-30T12:08:08.941Z,19.07
2018-12-30T12:10:36.418Z,19.67
2018-12-30T12:13:03.792Z,19.10
2018-12-30T12:15:31.221Z,18.87
2018-12-30T12:17:58.659Z,19.87
2018-12-30T12:20:26.091Z,19.80
2018-12-30T12:22:53.492Z,19.47
2018-12-30T12:25:20.924Z,18.83
2018-12-30T12:27:48.322Z,19.60
2018-12-30T12:30:15.770Z,19.43
2018-12-30T12:32:43.162Z,19.53
2018-12-30T12:35:10.578Z,22.80
2018-12-30T12:37:38.012Z,22.37
2018-12-30T12:40:05.414Z,22.87
2018-12-30T12:42:32.856Z,29.00
2018-12-30T12:45:00.303Z,24.80
2018-12-30T12:47:27.728Z,21.77
2018-12-30T12:49:55.137Z,18.73
2018-12-30T12:52:22.576Z,18.50
2018-12-30T12:54:50.022Z,20.07
2018-12-30T12:57:17.433Z,19.40
2018-12-30T12:59:44.864Z,19.43
2018-12-30T13:02:13.858Z,17.50
2018-12-30T13:04:39.726Z,17.20
2018-12-30T13:07:07.137Z,17.57
2018-12-30T13:09:34.538Z,18.90
2018-12-30T13:12:01.991Z,17.30
2018-12-30T13:14:29.403Z,17.13
2018-12-30T13:16:56.860Z,17.27
2018-12-30T13:19:24.285Z,18.40
2018-12-30T13:21:51.806Z,16.90
2018-12-30T13:24:19.226Z,21.53
2018-12-30T13:26:46.625Z,22.67
2018-12-30T13:29:14.052Z,24.57
2018-12-30T13:31:41.471Z,25.10
2018-12-30T13:34:08.916Z,23.43
2018-12-30T13:36:36.365Z,26.30
2018-12-30T13:39:03.810Z,24.43
2018-12-30T13:41:31.222Z,25.03
2018-12-30T13:43:58.627Z,23.87
2018-12-30T13:46:26.059Z,25.27
2018-12-30T13:48:53.475Z,25.97
2018-12-30T13:51:20.919Z,26.37
2018-12-30T13:53:48.348Z,26.37
2018-12-30T13:56:15.795Z,26.03
2018-12-30T13:58:43.197Z,27.57
2018-12-30T14:01:10.609Z,27.50
2018-12-30T14:03:38.040Z,30.50
2018-12-30T14:06:05.482Z,28.03
2018-12-30T14:08:32.891Z,28.50
2018-12-30T14:11:00.342Z,29.00
2018-12-30T14:13:27.743Z,28.83
2018-12-30T14:15:55.176Z,29.17
2018-12-30T14:18:22.616Z,29.37
2018-12-30T14:20:50.020Z,28.33
2018-12-30T14:23:17.419Z,28.47
2018-12-30T14:25:44.860Z,29.70
2018-12-30T14:28:12.272Z,30.80
2018-12-30T14:30:39.702Z,30.87
2018-12-30T14:33:07.109Z,32.43
2018-12-30T14:35:34.539Z,30.50
2018-12-30T14:38:01.986Z,33.23
2018-12-30T14:40:30.060Z,34.53
2018-12-30T14:42:56.838Z,33.10
2018-12-30T14:45:24.248Z,31.50
2018-12-30T14:47:51.680Z,32.93
2018-12-30T14:50:20.298Z,32.60
2018-12-30T14:52:46.551Z,33.30
2018-12-30T14:55:13.967Z,33.83
2018-12-30T14:57:41.422Z,32.83
2018-12-30T15:00:08.844Z,33.10
2018-12-30T15:02:36.298Z,33.47
2018-12-30T15:05:03.733Z,33.97
2018-12-30T15:07:31.171Z,34.20
2018-12-30T15:09:58.600Z,34.90
2018-12-30T15:12:26.064Z,36.23
2018-12-30T15:14:53.510Z,35.40
2018-12-30T15:17:20.926Z,36.63
2018-12-30T15:19:48.363Z,35.27
2018-12-30T15:22:15.814Z,35.27
2018-12-30T15:24:43.263Z,35.83
2018-12-30T15:27:10.674Z,39.97
2018-12-30T15:29:38.109Z,38.57
2018-12-30T15:32:05.538Z,40.60
2018-12-30T15:34:32.958Z,41.50
2018-12-30T15:37:00.388Z,42.67
2018-12-30T15:39:27.857Z,41.37
2018-12-30T15:41:55.294Z,41.53
2018-12-30T15:44:22.758Z,41.20
2018-12-30T15:46:50.204Z,42.33
2018-12-30T15:49:17.627Z,44.63
2018-12-30T15:51:45.081Z,41.50
2018-12-30T15:54:12.488Z,42.13
2018-12-30T15:56:39.902Z,43.83
2018-12-30T15:59:07.335Z,40.97
2018-12-30T16:01:34.756Z,41.40
2018-12-30T16:04:02.195Z,40.13
2018-12-30T16:06:29.697Z,38.97
2018-12-30T16:08:57.057Z,41.63
2018-12-30T16:11:24.471Z,40.47
2018-12-30T16:13:51.881Z,40.27
2018-12-30T16:16:19.342Z,40.77
2018-12-30T16:18:46.765Z,39.57
2018-12-30T16:21:14.172Z,41.30
2018-12-30T16:23:41.607Z,38.83
2018-12-30T16:26:09.045Z,39.07
2018-12-30T16:28:36.457Z,42.20
2018-12-30T16:31:03.868Z,40.83
2018-12-30T16:33:31.328Z,40.17
2018-12-30T16:35:58.749Z,40.30
2018-12-30T16:38:26.184Z,41.33
2018-12-30T16:40:53.624Z,44.60
2018-12-30T16:43:21.041Z,51.80
2018-12-30T16:45:48.487Z,48.70
2018-12-30T16:48:15.902Z,47.23
2018-12-30T16:50:43.348Z,46.67
2018-12-30T16:53:10.750Z,45.07
2018-12-30T16:55:38.184Z,47.60
2018-12-30T16:58:05.608Z,47.90
2018-12-30T17:00:33.053Z,51.43
2018-12-30T17:03:00.472Z,48.87
2018-12-30T17:05:27.918Z,52.83
2018-12-30T17:07:55.336Z,51.40
2018-12-30T17:10:22.771Z,51.40
2018-12-30T17:12:50.184Z,53.17
2018-12-30T17:15:17.682Z,51.83
2018-12-30T17:17:45.101Z,52.57
2018-12-30T17:20:12.524Z,53.37
2018-12-30T17:22:39.975Z,51.20
2018-12-30T17:25:07.437Z,53.67
2018-12-30T17:27:34.860Z,56.30
2018-12-30T17:30:02.310Z,55.70
2018-12-30T17:32:29.734Z,56.57
2018-12-30T17:34:57.161Z,57.07
2018-12-30T17:37:24.586Z,61.97
2018-12-30T17:39:54.641Z,53.60
2018-12-30T17:42:22.050Z,57.57
2018-12-30T17:44:52.288Z,55.67
2018-12-30T17:47:19.701Z,54.67
2018-12-30T17:49:47.165Z,52.67
2018-12-30T17:52:14.592Z,54.77
2018-12-30T17:54:42.021Z,54.97
2018-12-30T17:57:10.337Z,53.53
2018-12-30T17:59:36.945Z,56.97
2018-12-30T18:02:04.362Z,53.00
2018-12-30T18:04:31.792Z,55.17
2018-12-30T18:06:59.232Z,58.43
2018-12-30T18:09:26.662Z,58.60
2018-12-30T18:11:54.084Z,60.17
2018-12-30T18:14:21.511Z,57.17
2018-12-30T18:16:48.963Z,59.90
2018-12-30T18:19:16.440Z,56.53
2018-12-30T18:22:01.994Z,72.27
2018-12-30T18:24:29.428Z,58.27
2018-12-30T18:26:58.666Z,66.43
2018-12-30T18:29:24.354Z,65.20
2018-12-30T18:31:51.760Z,60.93
2018-12-30T18:34:37.494Z,65.27
2018-12-30T18:37:04.970Z,66.17
2018-12-30T18:39:32.397Z,64.17
2018-12-30T18:42:18.110Z,62.53
2018-12-30T18:45:03.539Z,65.77
2018-12-30T18:47:49.287Z,57.17
2018-12-30T18:50:16.757Z,59.83
2018-12-30T18:52:44.175Z,53.40
2018-12-30T18:55:11.598Z,50.93
2018-12-30T18:57:39.069Z,52.93
2018-12-30T19:00:06.479Z,54.47
2018-12-30T19:02:52.594Z,56.03
2018-12-30T19:05:20.021Z,58.10
2018-12-30T19:07:47.552Z,52.50
2018-12-30T19:10:15.000Z,57.47
2018-12-30T19:12:42.410Z,54.20
2018-12-30T19:15:09.819Z,57.17
2018-12-30T19:17:37.269Z,57.33
2018-12-30T19:20:04.931Z,52.17
2018-12-30T19:22:50.874Z,52.03
2018-12-30T19:25:36.610Z,52.47
2018-12-30T19:28:22.213Z,57.47
2018-12-30T19:31:07.913Z,55.67
2018-12-30T19:34:12.281Z,53.47
2018-12-30T19:36:39.706Z,51.40
2018-12-30T19:39:44.348Z,58.20
2018-12-30T19:42:30.081Z,58.53
2018-12-30T19:44:57.511Z,61.13
2018-12-30T19:47:43.261Z,57.27
2018-12-30T19:50:10.691Z,55.13
2018-12-30T19:52:38.152Z,59.07
2018-12-30T19:55:05.566Z,59.17
2018-12-30T19:57:33.078Z,61.83
2018-12-30T20:00:00.569Z,60.93
2018-12-30T20:02:27.906Z,54.87
2018-12-30T20:04:55.347Z,51.33
2018-12-30T20:07:22.790Z,56.30
2018-12-30T20:09:50.215Z,50.37
2018-12-30T20:12:17.626Z,53.37
2018-12-30T20:14:45.114Z,51.27
2018-12-30T20:17:12.556Z,50.00
2018-12-30T20:19:40.009Z,47.00
2018-12-30T20:22:07.429Z,47.23
2018-12-30T20:24:35.033Z,49.17
2018-12-30T20:27:02.450Z,49.43
2018-12-30T20:29:29.896Z,45.70
2018-12-30T20:31:57.357Z,46.70
2018-12-30T20:34:26.644Z,46.33
2018-12-30T20:36:52.249Z,48.00
2018-12-30T20:39:19.697Z,46.33
2018-12-30T20:41:47.137Z,49.33
2018-12-30T20:44:14.545Z,46.57
2018-12-30T20:46:42.041Z,48.80
2018-12-30T20:49:09.439Z,45.33
2018-12-30T20:51:36.890Z,46.33
2018-12-30T20:54:04.340Z,47.33
2018-12-30T20:56:38.099Z,43.33
2018-12-30T20:59:05.208Z,45.83
2018-12-30T21:01:32.656Z,42.90
2018-12-30T21:04:00.136Z,44.57
2018-12-30T21:06:27.527Z,41.33
2018-12-30T21:08:55.011Z,42.10
2018-12-30T21:11:22.426Z,42.30
2018-12-30T21:13:49.869Z,42.33
2018-12-30T21:16:17.315Z,43.53
2018-12-30T21:18:44.724Z,40.73
2018-12-30T21:21:12.167Z,43.20
2018-12-30T21:23:39.948Z,41.20
2018-12-30T21:26:07.503Z,39.23
2018-12-30T21:28:35.008Z,42.70
2018-12-30T21:31:02.360Z,41.40
2018-12-30T21:33:29.803Z,42.70
2018-12-30T21:35:57.326Z,41.83
2018-12-30T21:38:24.750Z,42.40
2018-12-30T21:40:52.197Z,40.80
2018-12-30T21:43:19.704Z,38.43
2018-12-30T21:45:47.156Z,40.13
2018-12-30T21:48:14.587Z,40.80
2018-12-30T21:50:42.051Z,37.43
2018-12-30T21:53:09.495Z,36.97
2018-12-30T21:55:36.971Z,40.43
2018-12-30T21:58:04.407Z,38.43
2018-12-30T22:00:31.834Z,39.13
2018-12-30T22:02:59.277Z,37.63
2018-12-30T22:05:26.722Z,36.93
2018-12-30T22:07:54.138Z,37.67
2018-12-30T22:10:21.568Z,37.80
2018-12-30T22:12:49.049Z,38.93
2018-12-30T22:15:16.459Z,36.60
2018-12-30T22:17:43.861Z,35.83
2018-12-30T22:20:11.363Z,42.47
2018-12-30T22:22:38.767Z,40.60
2018-12-30T22:25:06.218Z,38.83
2018-12-30T22:27:33.711Z,38.40
2018-12-30T22:30:01.162Z,39.30
2018-12-30T22:32:28.592Z,38.87
2018-12-30T22:34:57.823Z,35.00
2018-12-30T22:37:25.285Z,37.30
2018-12-30T22:39:52.720Z,40.67
2018-12-30T22:42:20.206Z,49.87
2018-12-30T22:44:47.584Z,39.97
2018-12-30T22:47:15.025Z,38.30
2018-12-30T22:49:42.490Z,42.40
2018-12-30T22:52:09.920Z,39.87
2018-12-30T22:54:37.357Z,38.80
2018-12-30T22:57:04.793Z,38.67
2018-12-30T22:59:32.208Z,42.07
2018-12-30T23:01:59.703Z,40.37
2018-12-30T23:04:27.179Z,39.80
2018-12-30T23:06:54.608Z,38.90
2018-12-30T23:09:22.052Z,39.90
2018-12-30T23:11:49.490Z,39.23
2018-12-30T23:14:16.906Z,39.33
2018-12-30T23:16:44.347Z,41.03
2018-12-30T23:19:11.758Z,41.57
2018-12-30T23:21:39.224Z,44.30
2018-12-30T23:24:06.624Z,43.13
2018-12-30T23:26:34.087Z,40.87
2018-12-30T23:29:01.552Z,44.77
2018-12-30T23:31:29.001Z,45.73
2018-12-30T23:33:56.459Z,46.13
2018-12-30T23:36:23.927Z,43.93
2018-12-30T23:38:51.339Z,44.60
2018-12-30T23:41:18.744Z,41.87
2018-12-30T23:43:46.180Z,43.73
2018-12-30T23:46:13.582Z,42.77
2018-12-30T23:48:41.025Z,44.47
2018-12-30T23:51:08.456Z,41.13
2018-12-30T23:53:35.886Z,44.77
2018-12-30T23:56:04.518Z,45.50
2018-12-30T23:58:30.732Z,45.00
